sensor_id;sensor_type;location;lat;lon;timestamp;P1;durP1;ratioP1;P2;durP2;ratioP2
59306;SDS011;47983;53.016;-2.260;2023-03-31T00:01:07;14.52;;;1.88;;
59306;SDS011;47983;53.016;-2.260;2023-03-31T00:03:35;14.00;;;2.38;;
59306;SDS011;47983;53.016;-2.260;2023-03-31T00:06:05;5.93;;;1.20;;
59306;SDS011;47983;53.016;-2.260;2023-03-31T00:08:36;12.75;;;2.15;;
59306;SDS011;47983;53.016;-2.260;2023-03-31T00:11:06;4.72;;;1.05;;
59306;SDS011;47983;53.016;-2.260;2023-03-31T00:13:34;14.77;;;2.70;;
59306;SDS011;47983;53.016;-2.260;2023-03-31T00:16:04;4.72;;;0.90;;
59306;SDS011;47983;53.016;-2.260;2023-03-31T00:18:34;16.25;;;2.72;;
59306;SDS011;47983;53.016;-2.260;2023-03-31T00:21:06;17.88;;;2.50;;
59306;SDS011;47983;53.016;-2.260;2023-03-31T00:23:56;10.90;;;1.25;;
59306;SDS011;47983;53.016;-2.260;2023-03-31T00:26:27;10.98;;;1.60;;
59306;SDS011;47983;53.016;-2.260;2023-03-31T00:28:55;10.77;;;1.92;;
59306;SDS011;47983;53.016;-2.260;2023-03-31T00:31:24;12.45;;;2.30;;
59306;SDS011;47983;53.016;-2.260;2023-03-31T00:33:53;5.45;;;1.38;;
59306;SDS011;47983;53.016;-2.260;2023-03-31T00:36:22;6.97;;;1.48;;
59306;SDS011;47983;53.016;-2.260;2023-03-31T00:38:54;12.52;;;1.83;;
59306;SDS011;47983;53.016;-2.260;2023-03-31T00:41:26;11.10;;;1.92;;
59306;SDS011;47983;53.016;-2.260;2023-03-31T00:44:00;14.93;;;1.80;;
59306;SDS011;47983;53.016;-2.260;2023-03-31T00:52:00;15.25;;;2.50;;
59306;SDS011;47983;53.016;-2.260;2023-03-31T00:54:40;7.40;;;1.73;;
59306;SDS011;47983;53.016;-2.260;2023-03-31T00:57:11;14.43;;;2.30;;
59306;SDS011;47983;53.016;-2.260;2023-03-31T01:02:14;11.95;;;1.60;;
59306;SDS011;47983;53.016;-2.260;2023-03-31T01:04:44;7.28;;;2.22;;
59306;SDS011;47983;53.016;-2.260;2023-03-31T01:07:19;11.35;;;2.00;;
59306;SDS011;47983;53.016;-2.260;2023-03-31T01:09:49;18.30;;;2.00;;
59306;SDS011;47983;53.016;-2.260;2023-03-31T01:12:22;4.78;;;1.10;;
59306;SDS011;47983;53.016;-2.260;2023-03-31T01:14:52;10.13;;;1.48;;
59306;SDS011;47983;53.016;-2.260;2023-03-31T01:17:21;7.88;;;1.40;;
59306;SDS011;47983;53.016;-2.260;2023-03-31T01:22:54;5.47;;;1.55;;
59306;SDS011;47983;53.016;-2.260;2023-03-31T01:25:57;7.63;;;1.75;;
59306;SDS011;47983;53.016;-2.260;2023-03-31T01:42:28;10.40;;;2.00;;
59306;SDS011;47983;53.016;-2.260;2023-03-31T01:48:15;11.07;;;1.98;;
59306;SDS011;47983;53.016;-2.260;2023-03-31T01:51:13;13.90;;;2.80;;
59306;SDS011;47983;53.016;-2.260;2023-03-31T01:56:17;13.23;;;1.65;;
59306;SDS011;47983;53.016;-2.260;2023-03-31T02:01:48;8.63;;;1.52;;
59306;SDS011;47983;53.016;-2.260;2023-03-31T02:04:23;8.82;;;2.22;;
59306;SDS011;47983;53.016;-2.260;2023-03-31T02:07:03;8.93;;;1.92;;
59306;SDS011;47983;53.016;-2.260;2023-03-31T02:09:37;10.73;;;2.50;;
59306;SDS011;47983;53.016;-2.260;2023-03-31T02:12:09;11.60;;;3.45;;
59306;SDS011;47983;53.016;-2.260;2023-03-31T02:14:38;13.73;;;2.60;;
59306;SDS011;47983;53.016;-2.260;2023-03-31T02:17:10;13.80;;;3.63;;
59306;SDS011;47983;53.016;-2.260;2023-03-31T02:19:45;12.80;;;4.68;;
59306;SDS011;47983;53.016;-2.260;2023-03-31T02:22:16;6.97;;;1.83;;
59306;SDS011;47983;53.016;-2.260;2023-03-31T02:24:47;10.25;;;3.65;;
59306;SDS011;47983;53.016;-2.260;2023-03-31T02:27:22;5.97;;;1.80;;
59306;SDS011;47983;53.016;-2.260;2023-03-31T02:29:54;5.22;;;1.40;;
59306;SDS011;47983;53.016;-2.260;2023-03-31T02:32:42;4.30;;;1.00;;
59306;SDS011;47983;53.016;-2.260;2023-03-31T02:35:17;3.70;;;1.30;;
59306;SDS011;47983;53.016;-2.260;2023-03-31T02:37:47;8.90;;;1.20;;
59306;SDS011;47983;53.016;-2.260;2023-03-31T02:40:17;2.25;;;0.88;;
59306;SDS011;47983;53.016;-2.260;2023-03-31T02:42:48;9.30;;;2.38;;
59306;SDS011;47983;53.016;-2.260;2023-03-31T02:48:27;4.53;;;1.50;;
59306;SDS011;47983;53.016;-2.260;2023-03-31T03:07:33;2.97;;;1.23;;
59306;SDS011;47983;53.016;-2.260;2023-03-31T03:13:08;3.42;;;0.70;;
59306;SDS011;47983;53.016;-2.260;2023-03-31T03:15:57;4.05;;;1.10;;
59306;SDS011;47983;53.016;-2.260;2023-03-31T03:18:34;3.85;;;1.10;;
59306;SDS011;47983;53.016;-2.260;2023-03-31T03:21:01;1.38;;;0.60;;
59306;SDS011;47983;53.016;-2.260;2023-03-31T03:23:29;5.88;;;0.90;;
59306;SDS011;47983;53.016;-2.260;2023-03-31T03:25:59;1.50;;;0.65;;
59306;SDS011;47983;53.016;-2.260;2023-03-31T03:28:35;2.63;;;0.68;;
59306;SDS011;47983;53.016;-2.260;2023-03-31T03:31:03;0.80;;;0.55;;
59306;SDS011;47983;53.016;-2.260;2023-03-31T03:33:30;2.60;;;0.80;;
59306;SDS011;47983;53.016;-2.260;2023-03-31T03:35:58;2.80;;;0.80;;
59306;SDS011;47983;53.016;-2.260;2023-03-31T03:38:26;3.55;;;0.70;;
59306;SDS011;47983;53.016;-2.260;2023-03-31T03:40:53;1.25;;;0.57;;
59306;SDS011;47983;53.016;-2.260;2023-03-31T03:43:22;1.05;;;0.47;;
59306;SDS011;47983;53.016;-2.260;2023-03-31T03:45:50;0.85;;;0.50;;
59306;SDS011;47983;53.016;-2.260;2023-03-31T03:48:18;1.15;;;0.35;;
59306;SDS011;47983;53.016;-2.260;2023-03-31T03:50:45;0.35;;;0.35;;
59306;SDS011;47983;53.016;-2.260;2023-03-31T03:53:13;4.55;;;0.68;;
59306;SDS011;47983;53.016;-2.260;2023-03-31T03:55:41;3.22;;;0.50;;
59306;SDS011;47983;53.016;-2.260;2023-03-31T03:58:10;2.50;;;0.80;;
59306;SDS011;47983;53.016;-2.260;2023-03-31T04:00:38;5.28;;;0.90;;
59306;SDS011;47983;53.016;-2.260;2023-03-31T04:03:05;1.30;;;0.73;;
59306;SDS011;47983;53.016;-2.260;2023-03-31T04:05:33;1.63;;;0.73;;
59306;SDS011;47983;53.016;-2.260;2023-03-31T04:08:01;1.45;;;0.75;;
59306;SDS011;47983;53.016;-2.260;2023-03-31T04:10:29;2.38;;;0.70;;
59306;SDS011;47983;53.016;-2.260;2023-03-31T04:12:56;1.27;;;0.70;;
59306;SDS011;47983;53.016;-2.260;2023-03-31T04:15:24;1.00;;;0.75;;
59306;SDS011;47983;53.016;-2.260;2023-03-31T04:17:51;1.92;;;0.85;;
59306;SDS011;47983;53.016;-2.260;2023-03-31T04:20:20;3.45;;;0.77;;
59306;SDS011;47983;53.016;-2.260;2023-03-31T04:22:48;2.28;;;0.80;;
59306;SDS011;47983;53.016;-2.260;2023-03-31T04:25:17;1.30;;;0.80;;
59306;SDS011;47983;53.016;-2.260;2023-03-31T04:27:46;1.65;;;0.70;;
59306;SDS011;47983;53.016;-2.260;2023-03-31T04:30:25;4.03;;;1.00;;
59306;SDS011;47983;53.016;-2.260;2023-03-31T04:33:05;1.95;;;1.15;;
59306;SDS011;47983;53.016;-2.260;2023-03-31T04:35:33;4.85;;;1.23;;
59306;SDS011;47983;53.016;-2.260;2023-03-31T04:38:17;1.17;;;0.93;;
59306;SDS011;47983;53.016;-2.260;2023-03-31T04:40:47;3.05;;;1.55;;
59306;SDS011;47983;53.016;-2.260;2023-03-31T04:43:17;4.65;;;1.30;;
59306;SDS011;47983;53.016;-2.260;2023-03-31T04:45:46;3.03;;;1.48;;
59306;SDS011;47983;53.016;-2.260;2023-03-31T04:48:14;3.50;;;1.70;;
59306;SDS011;47983;53.016;-2.260;2023-03-31T04:50:41;2.55;;;1.23;;
59306;SDS011;47983;53.016;-2.260;2023-03-31T04:53:09;4.60;;;1.67;;
59306;SDS011;47983;53.016;-2.260;2023-03-31T04:55:36;3.85;;;1.48;;
59306;SDS011;47983;53.016;-2.260;2023-03-31T04:58:04;3.28;;;1.40;;
59306;SDS011;47983;53.016;-2.260;2023-03-31T05:00:32;5.85;;;1.60;;
59306;SDS011;47983;53.016;-2.260;2023-03-31T05:03:00;5.03;;;1.60;;
59306;SDS011;47983;53.016;-2.260;2023-03-31T05:05:27;4.95;;;1.45;;
59306;SDS011;47983;53.016;-2.260;2023-03-31T05:07:56;3.15;;;0.98;;
59306;SDS011;47983;53.016;-2.260;2023-03-31T05:10:24;1.88;;;1.05;;
59306;SDS011;47983;53.016;-2.260;2023-03-31T05:12:55;1.27;;;0.82;;
59306;SDS011;47983;53.016;-2.260;2023-03-31T05:15:23;3.05;;;0.98;;
59306;SDS011;47983;53.016;-2.260;2023-03-31T05:17:51;2.47;;;1.10;;
59306;SDS011;47983;53.016;-2.260;2023-03-31T05:20:19;1.52;;;1.02;;
59306;SDS011;47983;53.016;-2.260;2023-03-31T05:22:48;3.88;;;1.27;;
59306;SDS011;47983;53.016;-2.260;2023-03-31T05:25:18;4.80;;;1.65;;
59306;SDS011;47983;53.016;-2.260;2023-03-31T05:27:46;2.35;;;1.50;;
59306;SDS011;47983;53.016;-2.260;2023-03-31T05:30:14;2.28;;;1.25;;
59306;SDS011;47983;53.016;-2.260;2023-03-31T05:32:43;2.13;;;1.55;;
59306;SDS011;47983;53.016;-2.260;2023-03-31T05:35:11;2.08;;;1.77;;
59306;SDS011;47983;53.016;-2.260;2023-03-31T05:37:38;3.08;;;1.80;;
59306;SDS011;47983;53.016;-2.260;2023-03-31T05:40:06;4.10;;;1.90;;
59306;SDS011;47983;53.016;-2.260;2023-03-31T05:42:35;4.43;;;2.10;;
59306;SDS011;47983;53.016;-2.260;2023-03-31T05:45:04;5.68;;;2.63;;
59306;SDS011;47983;53.016;-2.260;2023-03-31T05:47:35;3.88;;;2.25;;
59306;SDS011;47983;53.016;-2.260;2023-03-31T05:50:03;8.50;;;2.80;;
59306;SDS011;47983;53.016;-2.260;2023-03-31T05:52:34;4.13;;;2.20;;
59306;SDS011;47983;53.016;-2.260;2023-03-31T05:57:31;4.38;;;2.25;;
59306;SDS011;47983;53.016;-2.260;2023-03-31T05:59:59;5.30;;;2.50;;
59306;SDS011;47983;53.016;-2.260;2023-03-31T06:02:31;7.03;;;2.40;;
59306;SDS011;47983;53.016;-2.260;2023-03-31T06:05:00;6.70;;;2.40;;
59306;SDS011;47983;53.016;-2.260;2023-03-31T06:07:27;5.80;;;2.30;;
59306;SDS011;47983;53.016;-2.260;2023-03-31T06:09:55;4.93;;;2.08;;
59306;SDS011;47983;53.016;-2.260;2023-03-31T06:12:23;3.63;;;2.33;;
59306;SDS011;47983;53.016;-2.260;2023-03-31T06:14:51;6.47;;;2.55;;
59306;SDS011;47983;53.016;-2.260;2023-03-31T06:17:18;3.63;;;2.08;;
59306;SDS011;47983;53.016;-2.260;2023-03-31T06:19:46;3.35;;;1.83;;
59306;SDS011;47983;53.016;-2.260;2023-03-31T06:22:13;7.13;;;3.17;;
59306;SDS011;47983;53.016;-2.260;2023-03-31T06:24:41;6.70;;;2.30;;
59306;SDS011;47983;53.016;-2.260;2023-03-31T06:27:09;5.75;;;2.75;;
59306;SDS011;47983;53.016;-2.260;2023-03-31T06:29:39;4.60;;;2.17;;
59306;SDS011;47983;53.016;-2.260;2023-03-31T06:32:06;5.88;;;2.70;;
59306;SDS011;47983;53.016;-2.260;2023-03-31T06:34:34;5.95;;;2.75;;
59306;SDS011;47983;53.016;-2.260;2023-03-31T06:37:02;4.93;;;2.40;;
59306;SDS011;47983;53.016;-2.260;2023-03-31T06:39:29;11.38;;;3.83;;
59306;SDS011;47983;53.016;-2.260;2023-03-31T06:41:57;4.32;;;2.70;;
59306;SDS011;47983;53.016;-2.260;2023-03-31T06:44:27;6.28;;;2.75;;
59306;SDS011;47983;53.016;-2.260;2023-03-31T06:46:54;7.05;;;2.38;;
59306;SDS011;47983;53.016;-2.260;2023-03-31T06:49:23;6.00;;;2.58;;
59306;SDS011;47983;53.016;-2.260;2023-03-31T06:51:50;5.82;;;2.67;;
59306;SDS011;47983;53.016;-2.260;2023-03-31T06:54:18;9.85;;;2.53;;
59306;SDS011;47983;53.016;-2.260;2023-03-31T06:56:46;7.90;;;2.85;;
59306;SDS011;47983;53.016;-2.260;2023-03-31T06:59:13;5.93;;;2.53;;
59306;SDS011;47983;53.016;-2.260;2023-03-31T07:01:41;5.65;;;2.63;;
59306;SDS011;47983;53.016;-2.260;2023-03-31T07:04:09;4.43;;;2.67;;
59306;SDS011;47983;53.016;-2.260;2023-03-31T07:06:37;7.70;;;3.75;;
59306;SDS011;47983;53.016;-2.260;2023-03-31T07:09:04;8.18;;;3.35;;
59306;SDS011;47983;53.016;-2.260;2023-03-31T07:11:32;14.60;;;5.28;;
59306;SDS011;47983;53.016;-2.260;2023-03-31T07:14:00;11.27;;;3.53;;
59306;SDS011;47983;53.016;-2.260;2023-03-31T07:16:27;17.33;;;3.60;;
59306;SDS011;47983;53.016;-2.260;2023-03-31T07:18:55;10.63;;;3.35;;
59306;SDS011;47983;53.016;-2.260;2023-03-31T07:21:24;8.38;;;2.55;;
59306;SDS011;47983;53.016;-2.260;2023-03-31T07:23:52;12.10;;;2.90;;
59306;SDS011;47983;53.016;-2.260;2023-03-31T07:26:20;8.52;;;2.70;;
59306;SDS011;47983;53.016;-2.260;2023-03-31T07:28:50;10.23;;;3.35;;
59306;SDS011;47983;53.016;-2.260;2023-03-31T07:31:18;8.80;;;2.85;;
59306;SDS011;47983;53.016;-2.260;2023-03-31T07:33:46;9.95;;;3.00;;
59306;SDS011;47983;53.016;-2.260;2023-03-31T07:36:14;8.93;;;2.78;;
59306;SDS011;47983;53.016;-2.260;2023-03-31T07:38:45;6.30;;;2.88;;
59306;SDS011;47983;53.016;-2.260;2023-03-31T07:41:18;6.82;;;3.13;;
59306;SDS011;47983;53.016;-2.260;2023-03-31T07:43:46;8.95;;;3.10;;
59306;SDS011;47983;53.016;-2.260;2023-03-31T07:46:22;8.63;;;2.85;;
59306;SDS011;47983;53.016;-2.260;2023-03-31T07:48:52;6.68;;;2.63;;
59306;SDS011;47983;53.016;-2.260;2023-03-31T07:51:22;8.60;;;2.28;;
59306;SDS011;47983;53.016;-2.260;2023-03-31T07:53:52;10.93;;;2.50;;
59306;SDS011;47983;53.016;-2.260;2023-03-31T07:56:23;7.45;;;2.40;;
59306;SDS011;47983;53.016;-2.260;2023-03-31T07:58:54;6.47;;;1.67;;
59306;SDS011;47983;53.016;-2.260;2023-03-31T08:01:24;5.82;;;1.70;;
59306;SDS011;47983;53.016;-2.260;2023-03-31T08:03:57;7.15;;;1.65;;
59306;SDS011;47983;53.016;-2.260;2023-03-31T08:06:25;5.95;;;1.30;;
59306;SDS011;47983;53.016;-2.260;2023-03-31T08:08:57;5.95;;;1.58;;
59306;SDS011;47983;53.016;-2.260;2023-03-31T08:11:25;5.90;;;1.50;;
59306;SDS011;47983;53.016;-2.260;2023-03-31T08:13:53;5.65;;;1.33;;
59306;SDS011;47983;53.016;-2.260;2023-03-31T08:16:20;12.55;;;1.77;;
59306;SDS011;47983;53.016;-2.260;2023-03-31T08:18:50;4.50;;;1.40;;
59306;SDS011;47983;53.016;-2.260;2023-03-31T08:21:18;6.20;;;2.25;;
59306;SDS011;47983;53.016;-2.260;2023-03-31T08:23:52;6.75;;;1.75;;
59306;SDS011;47983;53.016;-2.260;2023-03-31T08:26:21;6.68;;;2.17;;
59306;SDS011;47983;53.016;-2.260;2023-03-31T08:28:51;4.95;;;1.83;;
59306;SDS011;47983;53.016;-2.260;2023-03-31T08:31:20;10.02;;;2.65;;
59306;SDS011;47983;53.016;-2.260;2023-03-31T08:33:52;5.55;;;2.15;;
59306;SDS011;47983;53.016;-2.260;2023-03-31T08:36:21;6.78;;;1.98;;
59306;SDS011;47983;53.016;-2.260;2023-03-31T08:38:49;3.35;;;1.30;;
59306;SDS011;47983;53.016;-2.260;2023-03-31T08:41:30;6.45;;;2.15;;
59306;SDS011;47983;53.016;-2.260;2023-03-31T08:46:58;5.30;;;1.25;;
59306;SDS011;47983;53.016;-2.260;2023-03-31T08:49:30;7.72;;;1.23;;
59306;SDS011;47983;53.016;-2.260;2023-03-31T08:52:06;6.75;;;1.30;;
59306;SDS011;47983;53.016;-2.260;2023-03-31T08:54:50;6.75;;;1.20;;
59306;SDS011;47983;53.016;-2.260;2023-03-31T08:57:24;3.20;;;1.17;;
59306;SDS011;47983;53.016;-2.260;2023-03-31T08:59:54;5.40;;;1.60;;
59306;SDS011;47983;53.016;-2.260;2023-03-31T09:07:43;4.28;;;1.38;;
59306;SDS011;47983;53.016;-2.260;2023-03-31T09:20:50;5.55;;;1.83;;
59306;SDS011;47983;53.016;-2.260;2023-03-31T09:23:26;5.90;;;2.50;;
59306;SDS011;47983;53.016;-2.260;2023-03-31T09:26:02;6.65;;;2.83;;
59306;SDS011;47983;53.016;-2.260;2023-03-31T09:28:35;5.63;;;2.42;;
59306;SDS011;47983;53.016;-2.260;2023-03-31T09:31:13;6.60;;;2.63;;
59306;SDS011;47983;53.016;-2.260;2023-03-31T09:33:46;5.35;;;2.28;;
59306;SDS011;47983;53.016;-2.260;2023-03-31T09:36:16;5.07;;;2.25;;
59306;SDS011;47983;53.016;-2.260;2023-03-31T09:43:44;4.45;;;2.28;;
59306;SDS011;47983;53.016;-2.260;2023-03-31T09:46:18;8.73;;;2.85;;
59306;SDS011;47983;53.016;-2.260;2023-03-31T09:49:05;5.07;;;2.33;;
59306;SDS011;47983;53.016;-2.260;2023-03-31T09:51:39;3.80;;;2.42;;
59306;SDS011;47983;53.016;-2.260;2023-03-31T09:54:26;4.07;;;2.28;;
59306;SDS011;47983;53.016;-2.260;2023-03-31T09:57:01;5.80;;;2.05;;
59306;SDS011;47983;53.016;-2.260;2023-03-31T09:59:31;4.15;;;1.70;;
59306;SDS011;47983;53.016;-2.260;2023-03-31T10:02:05;2.65;;;0.95;;
59306;SDS011;47983;53.016;-2.260;2023-03-31T10:04:53;1.55;;;0.73;;
59306;SDS011;47983;53.016;-2.260;2023-03-31T10:07:22;5.70;;;1.30;;
59306;SDS011;47983;53.016;-2.260;2023-03-31T10:09:51;4.68;;;1.75;;
59306;SDS011;47983;53.016;-2.260;2023-03-31T10:12:21;5.72;;;1.90;;
59306;SDS011;47983;53.016;-2.260;2023-03-31T10:14:52;3.58;;;1.65;;
59306;SDS011;47983;53.016;-2.260;2023-03-31T10:17:26;3.67;;;1.38;;
59306;SDS011;47983;53.016;-2.260;2023-03-31T10:19:59;2.15;;;1.00;;
59306;SDS011;47983;53.016;-2.260;2023-03-31T10:22:37;1.77;;;0.80;;
59306;SDS011;47983;53.016;-2.260;2023-03-31T10:25:18;3.53;;;1.70;;
59306;SDS011;47983;53.016;-2.260;2023-03-31T10:27:52;2.35;;;1.25;;
59306;SDS011;47983;53.016;-2.260;2023-03-31T10:30:26;2.70;;;1.25;;
59306;SDS011;47983;53.016;-2.260;2023-03-31T10:33:12;3.00;;;2.20;;
59306;SDS011;47983;53.016;-2.260;2023-03-31T10:35:53;2.63;;;1.23;;
59306;SDS011;47983;53.016;-2.260;2023-03-31T10:38:35;3.25;;;1.08;;
59306;SDS011;47983;53.016;-2.260;2023-03-31T10:41:08;5.80;;;1.55;;
59306;SDS011;47983;53.016;-2.260;2023-03-31T10:43:39;2.10;;;1.40;;
59306;SDS011;47983;53.016;-2.260;2023-03-31T10:46:11;2.53;;;1.48;;
59306;SDS011;47983;53.016;-2.260;2023-03-31T10:48:41;3.33;;;1.75;;
59306;SDS011;47983;53.016;-2.260;2023-03-31T10:51:25;2.55;;;1.85;;
59306;SDS011;47983;53.016;-2.260;2023-03-31T10:53:54;3.47;;;2.08;;
59306;SDS011;47983;53.016;-2.260;2023-03-31T10:56:39;5.07;;;1.90;;
59306;SDS011;47983;53.016;-2.260;2023-03-31T11:13:19;4.65;;;2.20;;
59306;SDS011;47983;53.016;-2.260;2023-03-31T11:27:05;2.63;;;1.70;;
59306;SDS011;47983;53.016;-2.260;2023-03-31T11:30:05;1.98;;;1.40;;
59306;SDS011;47983;53.016;-2.260;2023-03-31T11:33:03;1.70;;;1.27;;
59306;SDS011;47983;53.016;-2.260;2023-03-31T11:41:10;2.65;;;1.00;;
59306;SDS011;47983;53.016;-2.260;2023-03-31T11:46:14;2.55;;;1.10;;
59306;SDS011;47983;53.016;-2.260;2023-03-31T11:48:58;3.58;;;1.17;;
59306;SDS011;47983;53.016;-2.260;2023-03-31T11:51:42;3.47;;;1.25;;
59306;SDS011;47983;53.016;-2.260;2023-03-31T11:54:18;1.55;;;1.17;;
59306;SDS011;47983;53.016;-2.260;2023-03-31T11:56:50;2.83;;;1.75;;
59306;SDS011;47983;53.016;-2.260;2023-03-31T11:59:20;4.45;;;1.92;;
59306;SDS011;47983;53.016;-2.260;2023-03-31T12:04:38;5.05;;;1.45;;
59306;SDS011;47983;53.016;-2.260;2023-03-31T12:07:33;2.35;;;1.67;;
59306;SDS011;47983;53.016;-2.260;2023-03-31T12:10:20;2.53;;;1.75;;
59306;SDS011;47983;53.016;-2.260;2023-03-31T12:13:01;7.10;;;1.60;;
59306;SDS011;47983;53.016;-2.260;2023-03-31T12:15:32;4.68;;;1.70;;
59306;SDS011;47983;53.016;-2.260;2023-03-31T12:18:09;1.77;;;1.40;;
59306;SDS011;47983;53.016;-2.260;2023-03-31T12:23:21;2.72;;;1.08;;
59306;SDS011;47983;53.016;-2.260;2023-03-31T12:25:54;1.92;;;1.30;;
59306;SDS011;47983;53.016;-2.260;2023-03-31T12:28:31;1.20;;;0.80;;
59306;SDS011;47983;53.016;-2.260;2023-03-31T12:31:00;1.73;;;1.05;;
59306;SDS011;47983;53.016;-2.260;2023-03-31T12:33:41;0.82;;;0.75;;
59306;SDS011;47983;53.016;-2.260;2023-03-31T12:47:27;0.50;;;0.50;;
59306;SDS011;47983;53.016;-2.260;2023-03-31T12:52:40;0.50;;;0.50;;
59306;SDS011;47983;53.016;-2.260;2023-03-31T13:03:43;1.40;;;0.50;;
59306;SDS011;47983;53.016;-2.260;2023-03-31T13:06:57;0.85;;;0.63;;
59306;SDS011;47983;53.016;-2.260;2023-03-31T13:09:00;0.52;;;0.40;;
59306;SDS011;47983;53.016;-2.260;2023-03-31T13:16:45;0.32;;;0.32;;
59306;SDS011;47983;53.016;-2.260;2023-03-31T13:19:35;9.83;;;1.97;;
59306;SDS011;47983;53.016;-2.260;2023-03-31T13:22:03;3.67;;;0.90;;
59306;SDS011;47983;53.016;-2.260;2023-03-31T13:24:32;0.65;;;0.52;;
59306;SDS011;47983;53.016;-2.260;2023-03-31T13:27:46;3.67;;;1.45;;
59306;SDS011;47983;53.016;-2.260;2023-03-31T13:30:00;1.10;;;0.70;;
59306;SDS011;47983;53.016;-2.260;2023-03-31T13:32:29;0.68;;;0.40;;
59306;SDS011;47983;53.016;-2.260;2023-03-31T13:35:03;0.43;;;0.25;;
59306;SDS011;47983;53.016;-2.260;2023-03-31T13:43:47;1.75;;;0.70;;
59306;SDS011;47983;53.016;-2.260;2023-03-31T13:46:44;0.60;;;0.45;;
59306;SDS011;47983;53.016;-2.260;2023-03-31T13:52:34;2.37;;;0.47;;
59306;SDS011;47983;53.016;-2.260;2023-03-31T13:58:32;1.00;;;0.80;;
59306;SDS011;47983;53.016;-2.260;2023-03-31T14:07:07;1.58;;;1.33;;
59306;SDS011;47983;53.016;-2.260;2023-03-31T14:09:42;2.40;;;1.15;;
59306;SDS011;47983;53.016;-2.260;2023-03-31T14:12:20;1.05;;;0.98;;
59306;SDS011;47983;53.016;-2.260;2023-03-31T14:14:51;3.15;;;1.00;;
59306;SDS011;47983;53.016;-2.260;2023-03-31T14:17:26;3.28;;;1.23;;
59306;SDS011;47983;53.016;-2.260;2023-03-31T14:23:33;3.30;;;1.30;;
59306;SDS011;47983;53.016;-2.260;2023-03-31T14:35:07;1.88;;;1.40;;
59306;SDS011;47983;53.016;-2.260;2023-03-31T14:37:52;3.17;;;1.17;;
59306;SDS011;47983;53.016;-2.260;2023-03-31T14:40:22;2.47;;;1.23;;
59306;SDS011;47983;53.016;-2.260;2023-03-31T14:42:50;2.72;;;0.80;;
59306;SDS011;47983;53.016;-2.260;2023-03-31T14:45:25;1.02;;;0.77;;
59306;SDS011;47983;53.016;-2.260;2023-03-31T14:47:58;1.33;;;0.77;;
59306;SDS011;47983;53.016;-2.260;2023-03-31T14:50:44;1.00;;;0.90;;
59306;SDS011;47983;53.016;-2.260;2023-03-31T14:55:42;1.83;;;0.93;;
59306;SDS011;47983;53.016;-2.260;2023-03-31T14:58:35;2.95;;;1.13;;
59306;SDS011;47983;53.016;-2.260;2023-03-31T15:01:08;1.30;;;0.90;;
59306;SDS011;47983;53.016;-2.260;2023-03-31T15:03:40;2.13;;;0.90;;
59306;SDS011;47983;53.016;-2.260;2023-03-31T15:06:09;4.97;;;1.00;;
59306;SDS011;47983;53.016;-2.260;2023-03-31T15:08:38;1.80;;;0.90;;
59306;SDS011;47983;53.016;-2.260;2023-03-31T15:11:11;2.65;;;1.45;;
59306;SDS011;47983;53.016;-2.260;2023-03-31T15:13:46;2.58;;;1.00;;
59306;SDS011;47983;53.016;-2.260;2023-03-31T15:19:11;2.78;;;0.70;;
59306;SDS011;47983;53.016;-2.260;2023-03-31T15:21:59;1.10;;;0.70;;
59306;SDS011;47983;53.016;-2.260;2023-03-31T15:24:31;1.13;;;0.50;;
59306;SDS011;47983;53.016;-2.260;2023-03-31T15:27:03;0.50;;;0.50;;
59306;SDS011;47983;53.016;-2.260;2023-03-31T15:30:06;1.48;;;0.75;;
59306;SDS011;47983;53.016;-2.260;2023-03-31T15:32:36;1.85;;;0.80;;
59306;SDS011;47983;53.016;-2.260;2023-03-31T15:35:06;1.38;;;0.50;;
59306;SDS011;47983;53.016;-2.260;2023-03-31T15:38:08;1.58;;;0.82;;
59306;SDS011;47983;53.016;-2.260;2023-03-31T15:40:42;3.22;;;1.10;;
59306;SDS011;47983;53.016;-2.260;2023-03-31T15:43:16;0.70;;;0.70;;
59306;SDS011;47983;53.016;-2.260;2023-03-31T15:45:51;1.98;;;1.05;;
59306;SDS011;47983;53.016;-2.260;2023-03-31T15:48:29;0.60;;;0.60;;
59306;SDS011;47983;53.016;-2.260;2023-03-31T15:53:47;1.75;;;0.93;;
59306;SDS011;47983;53.016;-2.260;2023-03-31T15:59:22;1.90;;;0.63;;
59306;SDS011;47983;53.016;-2.260;2023-03-31T16:02:04;1.05;;;0.50;;
59306;SDS011;47983;53.016;-2.260;2023-03-31T16:04:38;1.40;;;0.45;;
59306;SDS011;47983;53.016;-2.260;2023-03-31T16:07:18;0.40;;;0.40;;
59306;SDS011;47983;53.016;-2.260;2023-03-31T16:14:54;0.80;;;0.70;;
59306;SDS011;47983;53.016;-2.260;2023-03-31T16:17:32;1.20;;;0.80;;
59306;SDS011;47983;53.016;-2.260;2023-03-31T16:20:06;2.60;;;0.93;;
59306;SDS011;47983;53.016;-2.260;2023-03-31T16:22:39;0.70;;;0.70;;
59306;SDS011;47983;53.016;-2.260;2023-03-31T16:25:11;1.30;;;0.75;;
59306;SDS011;47983;53.016;-2.260;2023-03-31T16:27:43;0.60;;;0.60;;
59306;SDS011;47983;53.016;-2.260;2023-03-31T16:30:19;1.90;;;0.80;;
59306;SDS011;47983;53.016;-2.260;2023-03-31T16:33:02;1.35;;;0.70;;
59306;SDS011;47983;53.016;-2.260;2023-03-31T16:35:36;2.33;;;0.70;;
59306;SDS011;47983;53.016;-2.260;2023-03-31T16:38:06;3.42;;;0.60;;
59306;SDS011;47983;53.016;-2.260;2023-03-31T16:40:39;2.60;;;0.98;;
59306;SDS011;47983;53.016;-2.260;2023-03-31T16:45:43;2.88;;;0.95;;
59306;SDS011;47983;53.016;-2.260;2023-03-31T16:48:14;2.40;;;1.15;;
59306;SDS011;47983;53.016;-2.260;2023-03-31T16:50:44;4.43;;;1.23;;
59306;SDS011;47983;53.016;-2.260;2023-03-31T16:53:14;2.58;;;1.40;;
59306;SDS011;47983;53.016;-2.260;2023-03-31T16:55:42;2.87;;;1.27;;
59306;SDS011;47983;53.016;-2.260;2023-03-31T16:58:10;2.97;;;1.00;;
59306;SDS011;47983;53.016;-2.260;2023-03-31T17:00:41;2.50;;;0.70;;
59306;SDS011;47983;53.016;-2.260;2023-03-31T17:03:12;2.50;;;1.08;;
59306;SDS011;47983;53.016;-2.260;2023-03-31T17:05:42;1.17;;;0.75;;
59306;SDS011;47983;53.016;-2.260;2023-03-31T17:08:11;1.80;;;1.00;;
59306;SDS011;47983;53.016;-2.260;2023-03-31T17:10:40;1.70;;;1.20;;
59306;SDS011;47983;53.016;-2.260;2023-03-31T17:13:08;2.63;;;1.15;;
59306;SDS011;47983;53.016;-2.260;2023-03-31T17:15:36;1.58;;;1.00;;
59306;SDS011;47983;53.016;-2.260;2023-03-31T17:18:04;8.02;;;1.10;;
59306;SDS011;47983;53.016;-2.260;2023-03-31T17:20:33;2.05;;;1.20;;
59306;SDS011;47983;53.016;-2.260;2023-03-31T17:23:03;2.00;;;0.90;;
59306;SDS011;47983;53.016;-2.260;2023-03-31T17:25:31;1.52;;;0.80;;
59306;SDS011;47983;53.016;-2.260;2023-03-31T17:28:01;1.33;;;0.60;;
59306;SDS011;47983;53.016;-2.260;2023-03-31T17:30:30;0.70;;;0.45;;
59306;SDS011;47983;53.016;-2.260;2023-03-31T17:33:01;2.30;;;1.00;;
59306;SDS011;47983;53.016;-2.260;2023-03-31T17:35:30;2.83;;;0.80;;
59306;SDS011;47983;53.016;-2.260;2023-03-31T17:37:57;2.35;;;0.82;;
59306;SDS011;47983;53.016;-2.260;2023-03-31T17:40:25;0.98;;;0.90;;
59306;SDS011;47983;53.016;-2.260;2023-03-31T17:42:55;1.88;;;0.85;;
59306;SDS011;47983;53.016;-2.260;2023-03-31T17:45:22;2.00;;;0.98;;
59306;SDS011;47983;53.016;-2.260;2023-03-31T17:47:53;3.20;;;0.88;;
59306;SDS011;47983;53.016;-2.260;2023-03-31T17:50:25;2.13;;;0.80;;
59306;SDS011;47983;53.016;-2.260;2023-03-31T17:52:53;1.38;;;0.80;;
59306;SDS011;47983;53.016;-2.260;2023-03-31T17:55:21;1.13;;;1.02;;
59306;SDS011;47983;53.016;-2.260;2023-03-31T17:57:49;1.20;;;1.10;;
59306;SDS011;47983;53.016;-2.260;2023-03-31T18:00:17;4.82;;;1.10;;
59306;SDS011;47983;53.016;-2.260;2023-03-31T18:02:45;2.03;;;1.10;;
59306;SDS011;47983;53.016;-2.260;2023-03-31T18:05:13;2.33;;;0.98;;
59306;SDS011;47983;53.016;-2.260;2023-03-31T18:07:44;1.83;;;0.98;;
59306;SDS011;47983;53.016;-2.260;2023-03-31T18:12:44;6.60;;;1.10;;
59306;SDS011;47983;53.016;-2.260;2023-03-31T18:15:12;1.55;;;1.00;;
59306;SDS011;47983;53.016;-2.260;2023-03-31T18:17:40;2.70;;;1.27;;
59306;SDS011;47983;53.016;-2.260;2023-03-31T18:20:09;3.43;;;1.27;;
59306;SDS011;47983;53.016;-2.260;2023-03-31T18:22:37;2.13;;;1.00;;
59306;SDS011;47983;53.016;-2.260;2023-03-31T18:25:05;5.72;;;2.20;;